Sepulveda, California
Current Conditions -  °F | °C
As of 5:53 AM on Friday 31 Oct 2014 (Local Time) from KBUR Reporting Station
Haze Haze  
Wind Chill: 60°   Ceiling: 1100
Heat Index: 60°   Visibility: 6mi
Dew Point: 53°   Wind: 0mph
Humidity: 78%   Direction: NA
Pressure: 29.95"   Gusts: NA
Location:  34.1618°N, 118.281°W
Report Text: KBUR 311253Z 00000KT 6SM HZ OVC011 16/12 A2995 RMK AO2 SLP131 T01560117
Loading
Personal Weather Stations






























Interactive Weather Map New forecast layout! Learn more

10-Day Weather Forecast

Advertisements
Track Severe Weather on mobile